Time;durP1;ratioP1;P1;durP2;ratioP2;P2;SDS_P1;SDS_P2;PMS_P1;PMS_P2;Temp;Humidity;BMP_temperature;BMP_pressure;BME280_temperature;BME280_humidity;BME280_pressure;Samples;Min_cycle;Max_cycle;Signal;HPM_P1;HPM_P2
2023/12/11 00:00:06;;;;;;;27.20;11.40;;;;;;;-0.86;100.00;101112.27;109574;1240;69471;-77
2023/12/11 00:02:35;;;;;;;23.30;11.10;;;;;;;-0.83;100.00;101121.63;109738;1240;73594;-75
2023/12/11 00:05:04;;;;;;;24.70;11.70;;;;;;;-0.82;100.00;101118.02;109793;1242;60066;-77
2023/12/11 00:07:33;;;;;;;24.70;11.80;;;;;;;-0.82;100.00;101119.56;109818;1241;60192;-76
2023/12/11 00:10:03;;;;;;;28.90;11.90;;;;;;;-0.80;100.00;101112.87;109744;1240;72936;-75
2023/12/11 00:12:32;;;;;;;23.60;10.50;;;;;;;-0.80;100.00;101116.10;109807;1240;71297;-75
2023/12/11 00:15:00;;;;;;;26.10;11.60;;;;;;;-0.81;100.00;101115.94;109823;1241;70156;-75
2023/12/11 00:17:29;;;;;;;25.20;10.90;;;;;;;-0.81;100.00;101109.11;109788;1241;72058;-76
2023/12/11 00:19:59;;;;;;;24.20;11.30;;;;;;;-0.81;100.00;101105.85;109717;1244;61965;-76
2023/12/11 00:22:27;;;;;;;24.10;9.80;;;;;;;-0.81;100.00;101102.94;109815;1240;60092;-76
2023/12/11 00:24:57;;;;;;;25.30;11.50;;;;;;;-0.73;100.00;101104.35;109740;1240;72889;-75
2023/12/11 00:27:26;;;;;;;28.70;12.40;;;;;;;-0.83;100.00;101100.59;109781;1241;70132;-74
2023/12/11 00:29:55;;;;;;;25.20;10.50;;;;;;;-0.79;100.00;101093.50;109865;1240;69559;-75
2023/12/11 00:32:24;;;;;;;24.90;11.40;;;;;;;-0.70;100.00;101092.65;109818;1241;71432;-75
2023/12/11 00:34:53;;;;;;;23.80;10.30;;;;;;;-0.73;100.00;101094.42;109801;1242;60242;-76
2023/12/11 00:37:22;;;;;;;20.40;9.60;;;;;;;-0.68;100.00;101091.75;109797;1240;58557;-76
2023/12/11 00:39:51;;;;;;;24.10;10.50;;;;;;;-0.70;100.00;101093.86;109816;1240;72643;-77
2023/12/11 00:42:19;;;;;;;26.10;10.70;;;;;;;-0.74;100.00;101088.96;109770;1240;72296;-76
2023/12/11 00:44:48;;;;;;;23.20;9.50;;;;;;;-0.90;100.00;101089.27;109791;1242;68481;-77
2023/12/11 00:47:17;;;;;;;26.90;10.60;;;;;;;-0.82;100.00;101088.44;109775;1242;71794;-77
2023/12/11 00:49:48;;;;;;;22.60;9.90;;;;;;;-0.87;100.00;101084.92;109793;1242;59435;-76
2023/12/11 00:52:17;;;;;;;23.00;10.10;;;;;;;-0.94;100.00;101083.89;109701;1240;60542;-78
2023/12/11 00:54:46;;;;;;;21.30;10.50;;;;;;;-0.92;100.00;101079.92;109796;1241;73696;-78
2023/12/11 00:57:15;;;;;;;22.10;9.30;;;;;;;-0.94;100.00;101081.14;109753;1240;72071;-78
2023/12/11 00:59:44;;;;;;;22.80;9.40;;;;;;;-0.98;100.00;101078.14;109792;1241;70836;-77
2023/12/11 01:02:13;;;;;;;24.40;10.60;;;;;;;-0.93;100.00;101081.13;109746;1240;72825;-78
2023/12/11 01:04:41;;;;;;;22.40;9.50;;;;;;;-0.93;100.00;101087.30;109681;1244;62181;-78
2023/12/11 01:07:11;;;;;;;20.80;8.80;;;;;;;-0.89;100.00;101091.31;109702;1240;60679;-78
2023/12/11 01:09:41;;;;;;;21.70;10.50;;;;;;;-0.86;100.00;101091.77;109742;1242;74133;-77
2023/12/11 01:12:10;;;;;;;22.50;9.90;;;;;;;-0.89;100.00;101093.01;109777;1242;71590;-78
2023/12/11 01:14:39;;;;;;;23.50;10.40;;;;;;;-0.89;100.00;101095.08;109456;1245;69829;-78
2023/12/11 01:17:08;;;;;;;20.20;9.90;;;;;;;-0.90;100.00;101088.25;109656;1241;73451;-79
2023/12/11 01:19:56;;;;;;;25.10;9.90;;;;;;;-0.89;100.00;101079.85;109622;1242;62135;-78
2023/12/11 01:22:25;;;;;;;25.80;10.50;;;;;;;-0.81;100.00;101077.63;109625;1242;59480;-76
2023/12/11 01:24:54;;;;;;;23.50;9.50;;;;;;;-0.80;100.00;101073.70;109630;1242;69939;-76
2023/12/11 01:27:23;;;;;;;22.60;10.10;;;;;;;-0.79;100.00;101070.09;109662;1241;72012;-76
2023/12/11 01:29:51;;;;;;;22.10;9.90;;;;;;;-0.84;100.00;101067.42;109584;1240;70593;-76
2023/12/11 01:32:20;;;;;;;17.40;9.40;;;;;;;-0.86;100.00;101065.25;109568;1245;71612;-77
2023/12/11 01:34:49;;;;;;;20.90;8.90;;;;;;;-0.88;100.00;101063.41;109737;1240;59471;-75
2023/12/11 01:37:18;;;;;;;23.00;10.20;;;;;;;-0.94;100.00;101059.95;109803;1240;60231;-76
2023/12/11 01:39:47;;;;;;;20.60;9.30;;;;;;;-0.93;100.00;101051.39;109731;1244;71248;-75
2023/12/11 01:42:17;;;;;;;20.20;9.40;;;;;;;-0.89;100.00;101048.54;109782;1242;69400;-75
2023/12/11 01:44:46;;;;;;;21.40;8.90;;;;;;;-0.84;100.00;101043.17;109740;1241;70593;-75
2023/12/11 01:47:15;;;;;;;21.20;9.90;;;;;;;-0.79;100.00;101038.61;109757;1242;71486;-75
2023/12/11 01:49:44;;;;;;;23.10;9.30;;;;;;;-0.65;100.00;101039.87;109649;1242;62053;-74
2023/12/11 01:52:14;;;;;;;19.40;8.90;;;;;;;-0.70;100.00;101040.83;109560;1241;61051;-75
2023/12/11 01:54:44;;;;;;;19.50;9.60;;;;;;;-0.67;100.00;101032.38;109643;1242;73001;-75
2023/12/11 01:57:13;;;;;;;19.90;8.40;;;;;;;-0.63;100.00;101029.05;109580;1241;71836;-74
2023/12/11 01:59:42;;;;;;;19.50;9.00;;;;;;;-0.61;100.00;101031.58;109544;1240;70127;-74
2023/12/11 02:02:16;;;;;;;19.60;8.90;;;;;;;-0.59;100.00;101029.98;109541;1245;74749;-76
2023/12/11 02:04:46;;;;;;;18.30;7.90;;;;;;;-0.62;100.00;101028.50;109414;1245;60196;-76
2023/12/11 02:07:15;;;;;;;22.80;9.70;;;;;;;-0.65;100.00;101026.00;109550;1241;60237;-76
2023/12/11 02:09:44;;;;;;;20.00;9.10;;;;;;;-0.62;100.00;101026.30;109583;1241;73895;-77
2023/12/11 02:12:12;;;;;;;19.50;9.30;;;;;;;-0.66;100.00;101028.59;109504;1240;71558;-77
2023/12/11 02:14:41;;;;;;;19.20;8.90;;;;;;;-0.69;100.00;101024.20;109431;1245;69772;-79
2023/12/11 02:17:10;;;;;;;17.30;8.70;;;;;;;-0.64;100.00;101025.48;109602;1242;71402;-77
2023/12/11 02:19:39;;;;;;;20.80;9.20;;;;;;;-0.63;100.00;101028.88;109587;1242;60267;-77
2023/12/11 02:22:08;;;;;;;25.90;10.00;;;;;;;-0.74;100.00;101030.98;109525;1241;58611;-76
2023/12/11 02:24:45;;;;;;;19.60;8.30;;;;;;;-0.68;100.00;101030.01;109518;1245;71005;-78
2023/12/11 02:27:14;;;;;;;18.40;9.10;;;;;;;-0.63;100.00;101033.50;109526;1244;70164;-77
2023/12/11 02:29:43;;;;;;;21.40;8.90;;;;;;;-0.57;100.00;101033.02;109591;1241;68084;-77
2023/12/11 02:32:16;;;;;;;20.00;8.70;;;;;;;-0.52;100.00;101031.04;109657;1241;71701;-78
2023/12/11 02:34:47;;;;;;;19.70;9.40;;;;;;;-0.50;100.00;101027.23;109540;1244;59966;-76
2023/12/11 02:37:16;;;;;;;21.80;8.70;;;;;;;-0.48;100.00;101027.52;109628;1241;59473;-76
2023/12/11 02:39:45;;;;;;;18.30;7.50;;;;;;;-0.48;100.00;101034.05;109568;1241;70340;-78
2023/12/11 02:42:14;;;;;;;18.20;8.20;;;;;;;-0.48;100.00;101032.83;109591;1241;69279;-76
2023/12/11 02:44:43;;;;;;;20.10;8.70;;;;;;;-0.52;100.00;101036.01;109641;1242;68567;-76
2023/12/11 02:47:12;;;;;;;18.40;8.70;;;;;;;-0.54;100.00;101034.34;109646;1241;71903;-76
2023/12/11 02:49:41;;;;;;;18.00;8.50;;;;;;;-0.58;100.00;101028.09;109587;1241;61148;-76
2023/12/11 02:52:10;;;;;;;19.30;8.50;;;;;;;-0.50;100.00;101024.67;109645;1241;61575;-76
2023/12/11 02:54:39;;;;;;;20.10;8.60;;;;;;;-0.48;100.00;101023.42;109681;1242;73437;-75
2023/12/11 02:57:07;;;;;;;19.80;8.60;;;;;;;-0.48;100.00;101018.81;109796;1241;71653;-75
2023/12/11 02:59:36;;;;;;;18.20;9.10;;;;;;;-0.46;100.00;101009.35;109786;1241;68309;-75
2023/12/11 03:02:05;;;;;;;15.20;7.70;;;;;;;-0.52;100.00;101002.63;109749;1241;71642;-76
2023/12/11 03:04:34;;;;;;;21.80;8.70;;;;;;;-0.58;100.00;100995.75;109849;1242;61825;-76
2023/12/11 03:07:03;;;;;;;19.20;9.50;;;;;;;-0.52;100.00;100991.86;109728;1243;61690;-76
2023/12/11 03:09:32;;;;;;;21.70;9.40;;;;;;;-0.53;100.00;100987.92;109845;1241;73695;-76
2023/12/11 03:12:01;;;;;;;21.10;8.90;;;;;;;-0.49;100.00;100987.34;109828;1242;71465;-76
2023/12/11 03:14:29;;;;;;;20.80;8.80;;;;;;;-0.49;100.00;100987.00;109849;1241;69818;-77
2023/12/11 03:16:58;;;;;;;16.00;7.70;;;;;;;-0.48;100.00;100990.41;109501;1241;405249;-77
2023/12/11 03:19:27;;;;;;;18.20;7.70;;;;;;;-0.42;100.00;100997.11;109774;1241;59534;-77
2023/12/11 03:21:56;;;;;;;16.20;7.10;;;;;;;-0.50;100.00;100997.28;109732;1241;60598;-77
2023/12/11 03:24:25;;;;;;;16.00;6.90;;;;;;;-0.56;100.00;100998.94;109765;1242;73974;-77
2023/12/11 03:26:53;;;;;;;18.60;8.10;;;;;;;-0.52;100.00;100987.59;109725;1241;71391;-77
2023/12/11 03:29:22;;;;;;;18.90;8.30;;;;;;;-0.52;100.00;100999.23;109811;1241;67619;-77
2023/12/11 03:31:51;;;;;;;22.00;8.00;;;;;;;-0.43;100.00;100996.29;109711;1241;71823;-78
2023/12/11 03:34:20;;;;;;;19.10;7.40;;;;;;;-0.41;100.00;100996.73;109698;1244;62053;-78
2023/12/11 03:36:48;;;;;;;17.30;8.80;;;;;;;-0.47;100.00;101000.48;109798;1240;60008;-77
2023/12/11 03:39:17;;;;;;;15.60;6.50;;;;;;;-0.34;100.00;101000.70;109810;1241;73801;-77
2023/12/11 03:41:48;;;;;;;19.30;8.30;;;;;;;-0.32;100.00;101003.21;109853;1240;69753;-77
2023/12/11 03:44:17;;;;;;;20.40;8.50;;;;;;;-0.40;100.00;101004.92;109829;1241;68493;-77
2023/12/11 03:46:46;;;;;;;18.70;8.10;;;;;;;-0.47;100.00;100989.67;109714;1241;70877;-76
2023/12/11 03:49:18;;;;;;;21.10;9.20;;;;;;;-0.49;100.00;100986.83;109719;1242;58535;-76
2023/12/11 03:51:48;;;;;;;17.00;7.30;;;;;;;-0.53;100.00;100990.16;109809;1241;60476;-76
2023/12/11 03:54:17;;;;;;;15.90;8.20;;;;;;;-0.60;100.00;100985.70;109480;1240;71987;-79
2023/12/11 03:56:46;;;;;;;20.70;10.00;;;;;;;-0.68;100.00;100983.81;109636;1241;70693;-77
2023/12/11 03:59:15;;;;;;;19.80;8.60;;;;;;;-0.66;100.00;100979.51;109615;1241;70892;-77
2023/12/11 04:01:44;;;;;;;18.40;8.00;;;;;;;-0.67;100.00;100980.02;109585;1241;72322;-79
2023/12/11 04:04:14;;;;;;;19.10;8.80;;;;;;;-0.64;100.00;100987.31;109538;1244;60272;-79
2023/12/11 04:06:43;;;;;;;20.10;8.40;;;;;;;-0.60;100.00;100993.58;109465;1241;61976;-78
2023/12/11 04:09:12;;;;;;;22.10;9.10;;;;;;;-0.65;100.00;100993.84;109560;1241;73888;-78
2023/12/11 04:11:41;;;;;;;20.10;10.20;;;;;;;-0.74;100.00;100991.30;109562;1240;72725;-78
2023/12/11 04:14:10;;;;;;;25.40;9.90;;;;;;;-0.79;100.00;100991.91;109679;1241;68968;-78
2023/12/11 04:16:42;;;;;;;20.90;9.20;;;;;;;-0.79;100.00;100991.59;109761;1240;71803;-77
2023/12/11 04:19:14;;;;;;;19.30;9.30;;;;;;;-0.77;100.00;100992.39;109573;1244;61829;-77
2023/12/11 04:21:43;;;;;;;24.70;10.50;;;;;;;-0.79;100.00;100987.13;109794;1241;59453;-77
2023/12/11 04:24:12;;;;;;;19.30;9.30;;;;;;;-0.74;100.00;100978.98;109680;1244;73068;-77
2023/12/11 04:26:42;;;;;;;21.20;9.50;;;;;;;-0.77;100.00;100973.58;109668;1240;69125;-77
2023/12/11 04:29:11;;;;;;;22.40;9.50;;;;;;;-0.67;100.00;100973.55;109583;1241;66863;-77
2023/12/11 04:31:40;;;;;;;24.00;9.90;;;;;;;-0.67;100.00;100974.90;109540;1241;72503;-75
2023/12/11 04:34:09;;;;;;;19.40;8.70;;;;;;;-0.64;100.00;100976.05;109535;1241;61069;-76
2023/12/11 04:36:43;;;;;;;23.50;9.70;;;;;;;-0.67;100.00;100974.73;109489;1244;59800;-77
2023/12/11 04:39:13;;;;;;;19.70;9.70;;;;;;;-0.66;100.00;100976.25;109314;1241;73310;-76
2023/12/11 04:41:41;;;;;;;20.40;10.20;;;;;;;-0.64;100.00;100978.44;109547;1241;71778;-75
2023/12/11 04:44:10;;;;;;;18.70;9.30;;;;;;;-0.62;100.00;100976.66;109584;1241;68232;-77
2023/12/11 04:46:39;;;;;;;22.80;10.30;;;;;;;-0.59;100.00;100975.41;109546;1244;71661;-78
2023/12/11 04:49:08;;;;;;;23.00;10.10;;;;;;;-0.53;100.00;100975.98;109628;1243;60252;-78
2023/12/11 04:51:37;;;;;;;26.30;10.80;;;;;;;-0.57;100.00;100974.51;109663;1241;60724;-78
2023/12/11 04:54:06;;;;;;;23.20;10.60;;;;;;;-0.57;100.00;100977.07;109637;1241;73210;-80
2023/12/11 04:56:37;;;;;;;19.70;9.30;;;;;;;-0.56;100.00;100984.58;109621;1241;71676;-75
2023/12/11 04:59:06;;;;;;;20.80;9.60;;;;;;;-0.45;100.00;100977.50;109695;1241;69210;-75
2023/12/11 05:01:35;;;;;;;21.80;9.70;;;;;;;-0.47;100.00;100976.17;109562;1244;73353;-77
2023/12/11 05:04:04;;;;;;;21.80;9.90;;;;;;;-0.55;100.00;100981.66;109676;1244;62369;-75
2023/12/11 05:06:32;;;;;;;23.10;10.30;;;;;;;-0.58;100.00;100983.60;109585;1241;61372;-76
2023/12/11 05:09:04;;;;;;;22.70;10.20;;;;;;;-0.50;100.00;100976.77;109522;1241;74268;-76
2023/12/11 05:11:33;;;;;;;21.70;10.10;;;;;;;-0.49;100.00;100978.63;109509;1241;70616;-80
2023/12/11 05:14:05;;;;;;;20.70;9.60;;;;;;;-0.39;100.00;100984.90;109515;1241;68624;-74
2023/12/11 05:16:35;;;;;;;23.00;10.10;;;;;;;-0.34;100.00;100983.06;109466;1241;72875;-75
2023/12/11 05:19:05;;;;;;;30.20;13.30;;;;;;;-0.28;100.00;100983.61;109488;1243;62163;-76
2023/12/11 05:21:34;;;;;;;26.40;11.50;;;;;;;-0.28;100.00;100980.17;109418;1241;60076;-76
2023/12/11 05:24:04;;;;;;;26.30;11.90;;;;;;;-0.30;100.00;100977.33;109569;1241;74700;-77
2023/12/11 05:26:33;;;;;;;27.30;12.60;;;;;;;-0.41;100.00;100968.15;109377;1241;72538;-76
2023/12/11 05:29:03;;;;;;;26.20;12.70;;;;;;;-0.32;100.00;100974.98;109520;1241;69504;-72
2023/12/11 05:31:33;;;;;;;27.60;12.20;;;;;;;-0.33;100.00;100978.24;109450;1241;72384;-74
2023/12/11 05:34:02;;;;;;;32.00;13.20;;;;;;;-0.35;100.00;100980.34;109494;1244;62103;-76
2023/12/11 05:36:33;;;;;;;25.60;12.00;;;;;;;-0.34;100.00;100981.52;109510;1242;58045;-73
2023/12/11 05:39:02;;;;;;;26.70;12.40;;;;;;;-0.25;100.00;100980.29;109555;1242;73265;-76
2023/12/11 05:41:31;;;;;;;28.10;12.50;;;;;;;-0.37;100.00;100981.77;109515;1241;72501;-74
2023/12/11 05:44:03;;;;;;;27.50;13.10;;;;;;;-0.40;100.00;100978.41;109617;1241;70773;-76
2023/12/11 05:46:33;;;;;;;26.10;13.00;;;;;;;-0.46;100.00;100989.84;109574;1241;72154;-75
2023/12/11 05:49:02;;;;;;;30.60;13.00;;;;;;;-0.49;100.00;100990.94;109654;1244;60257;-74
2023/12/11 05:51:31;;;;;;;29.50;13.50;;;;;;;-0.55;100.00;100985.77;109729;1241;59039;-74
2023/12/11 05:54:00;;;;;;;29.30;12.20;;;;;;;-0.51;100.00;100985.84;109768;1241;73168;-74
2023/12/11 05:56:30;;;;;;;27.50;12.70;;;;;;;-0.40;100.00;100985.60;109710;1241;72366;-73
2023/12/11 05:58:59;;;;;;;36.00;15.00;;;;;;;-0.33;100.00;100987.49;109803;1241;70965;-74
2023/12/11 06:01:27;;;;;;;32.00;13.00;;;;;;;-0.24;100.00;100988.84;109651;1245;73933;-73
2023/12/11 06:03:56;;;;;;;29.20;13.30;;;;;;;-0.19;100.00;100992.48;109768;1242;60660;-73
2023/12/11 06:06:25;;;;;;;31.90;14.70;;;;;;;-0.22;100.00;100994.42;109662;1241;57942;-75
2023/12/11 06:08:59;;;;;;;28.40;13.20;;;;;;;-0.17;100.00;100998.41;109650;1240;72660;-74
2023/12/11 06:11:27;;;;;;;26.60;12.40;;;;;;;-0.19;100.00;100995.89;109780;1240;72504;-74
2023/12/11 06:13:57;;;;;;;30.30;13.70;;;;;;;-0.27;100.00;100994.18;109674;1241;67677;-74
2023/12/11 06:16:25;;;;;;;30.20;12.80;;;;;;;-0.21;100.00;100998.51;109742;1241;73816;-75
2023/12/11 06:18:54;;;;;;;33.20;14.30;;;;;;;-0.17;100.00;101005.77;109706;1244;60679;-74
2023/12/11 06:21:24;;;;;;;28.50;12.50;;;;;;;-0.15;100.00;101005.55;109646;1245;58640;-73
2023/12/11 06:23:53;;;;;;;29.20;12.50;;;;;;;-0.10;100.00;100999.62;109764;1241;72683;-75
2023/12/11 06:26:34;;;;;;;32.40;13.80;;;;;;;-0.13;100.00;100994.90;109731;1241;72453;-74
2023/12/11 06:29:03;;;;;;;30.20;12.70;;;;;;;-0.17;100.00;100995.34;109674;1241;70227;-75
2023/12/11 06:31:31;;;;;;;28.60;12.10;;;;;;;-0.22;100.00;100992.38;109532;1241;73548;-74
2023/12/11 06:34:01;;;;;;;34.20;14.40;;;;;;;-0.17;100.00;100994.15;109626;1245;60170;-76
2023/12/11 06:36:30;;;;;;;37.70;17.10;;;;;;;-0.22;100.00;100996.82;109638;1241;61035;-73
2023/12/11 06:38:59;;;;;;;33.80;15.70;;;;;;;-0.24;100.00;100992.94;109576;1241;73835;-76
2023/12/11 06:41:28;;;;;;;32.70;14.00;;;;;;;-0.17;100.00;100995.85;109715;1241;72533;-75
2023/12/11 06:44:00;;;;;;;36.50;16.00;;;;;;;-0.15;100.00;101000.93;109627;1241;70795;-76
2023/12/11 06:46:29;;;;;;;31.80;14.90;;;;;;;0.02;100.00;101008.23;109704;1243;73296;-74
2023/12/11 06:48:58;;;;;;;31.30;13.70;;;;;;;0.18;100.00;101016.25;109777;1242;60433;-74
2023/12/11 06:51:29;;;;;;;30.90;13.10;;;;;;;0.28;100.00;101012.05;109843;1242;60314;-73
2023/12/11 06:54:01;;;;;;;33.90;14.40;;;;;;;0.42;100.00;101015.61;109662;1241;74699;-75
2023/12/11 06:56:30;;;;;;;33.70;14.20;;;;;;;0.32;100.00;101011.59;109850;1241;72091;-74
2023/12/11 06:59:00;;;;;;;37.40;15.00;;;;;;;0.21;100.00;101008.47;109806;1241;70202;-75
2023/12/11 07:01:31;;;;;;;33.50;15.50;;;;;;;0.21;100.00;101003.98;109693;1245;72614;-75
2023/12/11 07:04:00;;;;;;;36.40;15.80;;;;;;;0.17;100.00;100996.91;109775;1242;60329;-72
2023/12/11 07:06:30;;;;;;;33.50;14.80;;;;;;;0.17;100.00;100995.89;109770;1241;61015;-73
2023/12/11 07:09:00;;;;;;;39.60;15.90;;;;;;;0.23;100.00;100998.97;109866;1240;74103;-72
2023/12/11 07:11:30;;;;;;;37.80;15.70;;;;;;;0.19;100.00;100995.14;109754;1241;71646;-73
2023/12/11 07:13:59;;;;;;;40.20;16.20;;;;;;;0.13;100.00;100999.58;109847;1241;70601;-72
2023/12/11 07:16:28;;;;;;;35.20;15.40;;;;;;;0.27;100.00;101000.77;109763;1241;74229;-74
2023/12/11 07:18:56;;;;;;;38.20;17.50;;;;;;;0.21;100.00;100995.09;109862;1242;61310;-72
2023/12/11 07:21:25;;;;;;;38.60;15.80;;;;;;;0.15;100.00;100990.09;109833;1240;61509;-73
2023/12/11 07:23:54;;;;;;;36.30;15.60;;;;;;;0.05;100.00;100994.45;109823;1242;72075;-73
2023/12/11 07:26:23;;;;;;;38.50;16.00;;;;;;;0.23;100.00;100997.27;109856;1242;69417;-73
2023/12/11 07:28:55;;;;;;;38.10;16.00;;;;;;;0.32;100.00;100999.95;109674;1245;69019;-72
2023/12/11 07:31:24;;;;;;;35.60;14.90;;;;;;;0.36;100.00;100992.50;109828;1242;71090;-72
2023/12/11 07:33:53;;;;;;;40.70;16.90;;;;;;;0.46;100.00;100990.88;109818;1241;61657;-73
2023/12/11 07:36:25;;;;;;;37.40;14.20;;;;;;;0.46;100.00;100991.90;109850;1241;61396;-73
2023/12/11 07:38:53;;;;;;;39.70;16.10;;;;;;;0.55;100.00;100991.98;109738;1241;73148;-73
2023/12/11 07:41:23;;;;;;;39.40;16.80;;;;;;;0.59;100.00;100986.09;109836;1242;71609;-72
2023/12/11 07:43:51;;;;;;;37.70;16.80;;;;;;;0.55;100.00;100979.31;109758;1241;71048;-72
2023/12/11 07:46:21;;;;;;;39.20;17.00;;;;;;;0.34;100.00;100982.25;109824;1241;72305;-72
2023/12/11 07:48:51;;;;;;;37.30;16.10;;;;;;;0.41;100.00;100985.84;109781;1245;62073;-72
2023/12/11 07:51:25;;;;;;;40.80;19.00;;;;;;;0.67;100.00;100984.46;109868;1240;61800;-72
2023/12/11 07:53:58;;;;;;;34.40;13.80;;;;;;;0.68;100.00;100990.63;109674;1241;72793;-72
2023/12/11 07:56:29;;;;;;;38.00;14.70;;;;;;;0.92;100.00;100986.20;109867;1241;71569;-72
2023/12/11 07:58:58;;;;;;;39.80;16.40;;;;;;;1.02;100.00;100980.59;109826;1241;70322;-72
2023/12/11 08:01:31;;;;;;;35.90;16.20;;;;;;;0.84;100.00;100978.17;109818;1241;71611;-73
2023/12/11 08:04:01;;;;;;;44.90;18.40;;;;;;;0.80;100.00;100976.06;109715;1245;59652;-74
2023/12/11 08:06:30;;;;;;;40.80;15.80;;;;;;;0.63;100.00;100978.24;109775;1241;59028;-75
2023/12/11 08:09:00;;;;;;;37.50;17.20;;;;;;;0.58;100.00;100971.36;109837;1241;70266;-72
2023/12/11 08:11:29;;;;;;;41.80;17.40;;;;;;;0.66;100.00;100969.77;109823;1241;72473;-72
2023/12/11 08:13:58;;;;;;;42.70;16.90;;;;;;;0.85;100.00;100970.11;109839;1240;71430;-72
2023/12/11 08:16:26;;;;;;;36.70;15.20;;;;;;;1.05;100.00;100973.65;109717;1240;72816;-72
2023/12/11 08:18:55;;;;;;;42.70;18.00;;;;;;;1.09;100.00;100971.45;109693;1245;61759;-72
2023/12/11 08:21:24;;;;;;;44.50;18.60;;;;;;;1.06;100.00;100965.05;109782;1242;60714;-73
2023/12/11 08:23:53;;;;;;;42.80;19.10;;;;;;;1.14;100.00;100968.90;109792;1242;71701;-72
2023/12/11 08:26:22;;;;;;;44.50;18.10;;;;;;;1.23;100.00;100965.23;109768;1242;70034;-72
2023/12/11 08:28:51;;;;;;;45.50;18.30;;;;;;;0.97;100.00;100958.62;109650;1241;70139;-72
2023/12/11 08:31:20;;;;;;;49.60;20.00;;;;;;;1.05;100.00;100958.90;109634;1242;74254;-71
2023/12/11 08:33:49;;;;;;;47.70;20.50;;;;;;;0.98;100.00;100968.18;109645;1242;62247;-73
2023/12/11 08:36:18;;;;;;;45.70;18.10;;;;;;;1.03;100.00;100972.16;109413;1241;60578;-72
2023/12/11 08:38:47;;;;;;;42.10;16.90;;;;;;;1.34;100.00;100978.46;109691;1240;74045;-72
2023/12/11 08:41:16;;;;;;;37.60;15.80;;;;;;;1.37;100.00;100982.30;109615;1241;71386;-72
2023/12/11 08:43:46;;;;;;;38.80;16.50;;;;;;;1.37;100.00;100980.09;109428;1241;70815;-73
2023/12/11 08:46:15;;;;;;;45.10;18.60;;;;;;;1.22;100.00;100977.44;109523;1245;72342;-73
2023/12/11 08:48:44;;;;;;;39.60;15.60;;;;;;;1.29;100.00;100984.58;109570;1242;59967;-73
2023/12/11 08:51:18;;;;;;;42.40;18.30;;;;;;;1.50;100.00;100990.31;109326;1241;60330;-74
2023/12/11 08:53:47;;;;;;;31.80;13.20;;;;;;;1.53;100.00;100985.96;109534;1244;72103;-73
2023/12/11 08:56:20;;;;;;;44.20;17.30;;;;;;;1.76;100.00;100984.91;109609;1242;69270;-73
2023/12/11 08:58:49;;;;;;;43.00;18.40;;;;;;;1.69;100.00;100989.39;109549;1240;70482;-73
2023/12/11 09:01:18;;;;;;;37.40;16.90;;;;;;;1.54;100.00;100987.45;109610;1241;74075;-73
2023/12/11 09:03:48;;;;;;;41.90;18.00;;;;;;;1.66;100.00;100979.02;109635;1241;61108;-73
2023/12/11 09:06:17;;;;;;;35.40;15.50;;;;;;;1.93;100.00;100975.92;109760;1241;60206;-72
2023/12/11 09:08:46;;;;;;;34.00;15.10;;;;;;;2.12;100.00;100980.45;109689;1244;71984;-72
2023/12/11 09:11:15;;;;;;;40.30;16.30;;;;;;;2.03;100.00;100975.27;109791;1240;72186;-73
2023/12/11 09:13:43;;;;;;;42.40;17.30;;;;;;;1.82;100.00;100971.83;109779;1241;69984;-73
2023/12/11 09:16:12;;;;;;;48.30;19.80;;;;;;;1.81;100.00;100964.31;109780;1240;72715;-73
2023/12/11 09:18:41;;;;;;;47.40;18.90;;;;;;;1.89;100.00;100954.24;109539;1244;59455;-74
2023/12/11 09:21:10;;;;;;;57.50;22.60;;;;;;;1.78;100.00;100955.64;109782;1242;59499;-73
2023/12/11 09:23:39;;;;;;;31.70;13.40;;;;;;;1.95;100.00;100961.43;109711;1242;70568;-73
2023/12/11 09:26:08;;;;;;;38.00;13.10;;;;;;;2.00;100.00;100960.77;109697;1241;71598;-73
2023/12/11 09:28:39;;;;;;;43.80;18.80;;;;;;;1.84;100.00;100955.27;109697;1241;71207;-73
2023/12/11 09:31:19;;;;;;;46.70;18.70;;;;;;;1.52;100.00;100953.18;109773;1241;72182;-73
2023/12/11 09:33:48;;;;;;;43.30;17.70;;;;;;;1.90;100.00;100953.86;109674;1243;61873;-72
2023/12/11 09:36:19;;;;;;;48.50;18.80;;;;;;;1.97;100.00;100948.65;109676;1241;60558;-72
2023/12/11 09:38:48;;;;;;;44.40;19.20;;;;;;;1.77;100.00;100946.05;109716;1240;73894;-72
2023/12/11 09:41:17;;;;;;;44.40;19.50;;;;;;;2.00;100.00;100934.15;109824;1242;72481;-72
2023/12/11 09:43:47;;;;;;;47.20;19.00;;;;;;;1.98;100.00;100935.05;109711;1241;69530;-73
2023/12/11 09:46:18;;;;;;;45.40;18.40;;;;;;;2.27;100.00;100945.43;109765;1241;72520;-73
2023/12/11 09:48:48;;;;;;;49.50;20.00;;;;;;;2.28;100.00;100939.90;109673;1244;60432;-73
2023/12/11 09:51:17;;;;;;;46.80;19.90;;;;;;;1.91;100.00;100930.46;109701;1241;57395;-73
2023/12/11 09:53:48;;;;;;;46.60;19.50;;;;;;;1.86;100.00;100922.59;109671;1241;70668;-73
2023/12/11 09:56:18;;;;;;;48.20;21.80;;;;;;;1.88;100.00;100920.95;109594;1241;70432;-72
2023/12/11 09:58:47;;;;;;;51.60;22.70;;;;;;;1.78;100.00;100920.76;109774;1240;70352;-73
2023/12/11 10:01:16;;;;;;;47.60;21.10;;;;;;;1.77;100.00;100924.60;109758;1242;73427;-72
2023/12/11 10:03:45;;;;;;;44.10;19.20;;;;;;;1.87;100.00;100914.80;109773;1241;58561;-73
2023/12/11 10:06:14;;;;;;;47.70;21.20;;;;;;;1.92;100.00;100904.52;109710;1241;59776;-74
2023/12/11 10:08:47;;;;;;;53.40;21.70;;;;;;;1.55;100.00;100904.52;109708;1241;71539;-73
2023/12/11 10:11:17;;;;;;;55.30;24.20;;;;;;;1.29;100.00;100906.36;109706;1240;71963;-73
2023/12/11 10:13:46;;;;;;;45.40;16.20;;;;;;;1.23;100.00;100905.36;109601;1240;70164;-72
2023/12/11 10:16:35;;;;;;;52.70;22.50;;;;;;;1.42;100.00;100904.95;109595;1241;70159;-73
2023/12/11 10:19:04;;;;;;;49.80;20.60;;;;;;;1.75;100.00;100900.44;109476;1241;59798;-73
2023/12/11 10:21:40;;;;;;;50.60;20.40;;;;;;;1.81;100.00;100900.59;109648;1241;58637;-73
2023/12/11 10:24:14;;;;;;;46.00;19.50;;;;;;;2.05;100.00;100896.18;109678;1241;72649;-73
2023/12/11 10:26:53;;;;;;;46.50;20.20;;;;;;;2.42;100.00;100889.71;109563;1241;72466;-73
2023/12/11 10:29:21;;;;;;;45.70;20.70;;;;;;;2.84;100.00;100890.40;109547;1240;71420;-73
2023/12/11 10:31:53;;;;;;;40.40;19.50;;;;;;;2.78;100.00;100885.32;109647;1241;72380;-73
2023/12/11 10:34:50;;;;;;;46.30;20.40;;;;;;;2.71;100.00;100889.00;109553;1244;60329;-73
2023/12/11 10:37:27;;;;;;;45.50;18.90;;;;;;;2.62;100.00;100885.05;109873;1238;57668;-73
2023/12/11 10:39:59;;;;;;;39.10;17.30;;;;;;;2.86;100.00;100877.79;109981;1238;73536;-72
2023/12/11 10:42:28;;;;;;;44.90;19.00;;;;;;;2.69;100.00;100878.92;109884;1241;72117;-73
2023/12/11 10:44:56;;;;;;;41.70;17.80;;;;;;;2.69;100.00;100872.21;109946;1237;70914;-73
2023/12/11 10:47:26;;;;;;;48.50;21.00;;;;;;;2.49;100.00;100864.02;110120;1238;73808;-73
2023/12/11 10:50:00;;;;;;;53.10;23.00;;;;;;;2.29;100.00;100867.67;110104;1239;62249;-73
2023/12/11 10:52:30;;;;;;;57.00;24.00;;;;;;;2.14;100.00;100864.77;110037;1238;61003;-73
2023/12/11 10:54:59;;;;;;;48.00;21.20;;;;;;;2.03;100.00;100867.86;110089;1237;73956;-73
2023/12/11 10:57:30;;;;;;;54.70;23.40;;;;;;;2.07;100.00;100861.73;109871;1237;70585;-74
2023/12/11 10:59:59;;;;;;;41.00;18.60;;;;;;;2.31;100.00;100853.83;109868;1237;68572;-74
2023/12/11 11:02:29;;;;;;;52.30;23.50;;;;;;;2.64;100.00;100851.25;109846;1238;71079;-74
2023/12/11 11:04:59;;;;;;;49.20;21.30;;;;;;;2.40;100.00;100851.13;109788;1241;61851;-73
2023/12/11 11:07:36;;;;;;;42.20;17.50;;;;;;;2.40;100.00;100853.70;109950;1238;60964;-73
2023/12/11 11:10:18;;;;;;;54.50;23.00;;;;;;;2.68;100.00;100851.96;109835;1238;73867;-73